createdAt,value
2019-02-14T00:00:45.484Z,103730.00
2019-02-14T00:02:45.497Z,103731.95
2019-02-14T00:03:47.245Z,103732.67
2019-02-14T00:04:46.984Z,103732.96
2019-02-14T00:05:48.821Z,103733.22
2019-02-14T00:06:48.451Z,103733.12
2019-02-14T00:07:50.153Z,103732.86
2019-02-14T00:08:50.777Z,103733.29
2019-02-14T00:09:51.545Z,103732.45
2019-02-14T00:10:52.454Z,103732.06
2019-02-14T00:11:53.129Z,103731.47
2019-02-14T00:12:53.782Z,103730.64
2019-02-14T00:13:54.685Z,103730.07
2019-02-14T00:14:55.523Z,103729.30
2019-02-14T00:15:56.546Z,103729.08
2019-02-14T00:16:57.155Z,103728.48
2019-02-14T00:17:57.419Z,103728.25
2019-02-14T00:18:56.434Z,103728.36
2019-02-14T00:19:58.103Z,103728.45
2019-02-14T00:20:58.717Z,103727.86
2019-02-14T00:21:59.288Z,103728.29
2019-02-14T00:22:59.327Z,103728.69
2019-02-14T00:23:59.155Z,103728.53
2019-02-14T00:25:00.862Z,103728.36
2019-02-14T00:26:01.069Z,103728.13
2019-02-14T00:27:01.775Z,103727.30
2019-02-14T00:28:02.378Z,103726.91
2019-02-14T00:29:02.972Z,103726.24
2019-02-14T00:30:03.646Z,103726.41
2019-02-14T00:31:04.631Z,103726.47
2019-02-14T00:32:05.309Z,103726.03
2019-02-14T00:33:05.632Z,103725.70
2019-02-14T00:34:05.761Z,103725.48
2019-02-14T00:35:06.427Z,103726.09
2019-02-14T00:36:07.241Z,103725.81
2019-02-14T00:37:07.416Z,103726.09
2019-02-14T00:38:07.848Z,103725.92
2019-02-14T00:39:08.489Z,103725.38
2019-02-14T00:40:07.402Z,103725.73
2019-02-14T00:41:08.956Z,103725.55
2019-02-14T00:42:09.818Z,103725.01
2019-02-14T00:43:10.141Z,103724.86
2019-02-14T00:43:21.223Z,103715.46
2019-02-14T00:44:22.947Z,103715.69
2019-02-14T00:45:23.711Z,103715.80
2019-02-14T00:46:24.513Z,103715.52
2019-02-14T00:47:24.517Z,103715.75
2019-02-14T00:48:26.276Z,103715.69
2019-02-14T00:49:26.272Z,103715.69
2019-02-14T00:50:26.939Z,103715.42
2019-02-14T00:51:27.881Z,103715.30
2019-02-14T00:52:28.588Z,103715.30
2019-02-14T00:53:28.142Z,103714.91
2019-02-14T00:54:29.892Z,103714.74
2019-02-14T00:55:30.923Z,103714.68
2019-02-14T00:56:30.498Z,103714.84
2019-02-14T00:57:32.378Z,103714.52
2019-02-14T00:58:32.867Z,103715.12
2019-02-14T00:59:33.586Z,103715.45
2019-02-14T01:00:34.136Z,103716.18
2019-02-14T01:01:34.855Z,103717.12
2019-02-14T01:02:35.579Z,103717.61
2019-02-14T01:03:36.222Z,103718.22
2019-02-14T01:04:36.893Z,103718.05
2019-02-14T01:05:37.677Z,103718.05
2019-02-14T01:06:38.316Z,103717.95
2019-02-14T01:07:39.036Z,103718.01
2019-02-14T01:08:39.630Z,103717.67
2019-02-14T01:09:40.354Z,103717.73
2019-02-14T01:10:40.965Z,103717.80
2019-02-14T01:11:41.837Z,103717.19
2019-02-14T01:12:40.937Z,103717.08
2019-02-14T01:13:42.951Z,103716.58
2019-02-14T01:14:43.679Z,103715.54
2019-02-14T01:15:44.429Z,103715.20
2019-02-14T01:16:44.299Z,103714.64
2019-02-14T01:17:46.449Z,103714.20
2019-02-14T01:18:45.905Z,103713.20
2019-02-14T01:19:47.469Z,103713.42
2019-02-14T01:20:48.411Z,103712.89
2019-02-14T01:21:49.109Z,103712.66
2019-02-14T01:22:49.675Z,103713.15
2019-02-14T01:23:50.355Z,103712.78
2019-02-14T01:24:50.955Z,103713.10
2019-02-14T01:25:50.977Z,103713.66
2019-02-14T01:26:51.776Z,103714.22
2019-02-14T01:27:51.368Z,103714.55
2019-02-14T01:28:51.907Z,103714.44
2019-02-14T01:29:53.629Z,103714.77
2019-02-14T01:30:54.334Z,103714.39
2019-02-14T01:31:54.979Z,103713.73
2019-02-14T01:32:04.047Z,103709.22
2019-02-14T01:33:05.751Z,103709.38
2019-02-14T01:34:06.612Z,103709.11
2019-02-14T01:35:06.849Z,103709.11
2019-02-14T01:36:06.986Z,103709.11
2019-02-14T01:37:07.726Z,103709.45
2019-02-14T01:38:08.384Z,103709.84
2019-02-14T01:39:09.118Z,103710.11
2019-02-14T01:40:09.862Z,103710.33
2019-02-14T01:41:10.682Z,103710.56
2019-02-14T01:42:11.378Z,103710.39
2019-02-14T01:43:12.000Z,103710.29
2019-02-14T01:44:12.995Z,103711.05
2019-02-14T01:45:13.673Z,103710.39
2019-02-14T01:46:14.320Z,103710.16
2019-02-14T01:47:15.017Z,103710.27
2019-02-14T01:48:15.867Z,103710.34
2019-02-14T01:49:16.534Z,103710.45
2019-02-14T01:50:17.402Z,103711.05
2019-02-14T01:51:17.641Z,103711.21
2019-02-14T01:52:18.240Z,103711.55
2019-02-14T01:53:18.864Z,103711.94
2019-02-14T01:54:19.797Z,103712.44
2019-02-14T01:55:20.606Z,103712.83
2019-02-14T01:56:21.513Z,103712.98
2019-02-14T01:57:22.052Z,103713.28
2019-02-14T01:58:22.841Z,103714.10
2019-02-14T01:59:23.669Z,103714.32
2019-02-14T02:00:24.395Z,103715.11
2019-02-14T02:01:25.338Z,103715.59
2019-02-14T02:02:26.027Z,103715.82
2019-02-14T02:03:26.118Z,103716.28
2019-02-14T02:04:26.716Z,103716.56
2019-02-14T02:05:27.575Z,103716.95
2019-02-14T02:06:27.686Z,103717.00
2019-02-14T02:07:28.406Z,103717.45
2019-02-14T02:08:29.083Z,103717.61
2019-02-14T02:09:29.626Z,103717.17
2019-02-14T02:10:30.385Z,103717.13
2019-02-14T02:11:31.266Z,103716.95
2019-02-14T02:12:31.994Z,103716.47
2019-02-14T02:13:32.917Z,103716.36
2019-02-14T02:14:33.584Z,103715.88
2019-02-14T02:15:34.189Z,103715.93
2019-02-14T02:15:43.279Z,103718.30
2019-02-14T02:16:45.069Z,103717.87
2019-02-14T02:17:45.801Z,103718.03
2019-02-14T02:18:46.380Z,103717.42
2019-02-14T02:19:47.103Z,103716.88
2019-02-14T02:20:47.714Z,103716.33
2019-02-14T02:21:48.613Z,103715.83
2019-02-14T02:22:49.214Z,103715.45
2019-02-14T02:23:50.142Z,103715.34
2019-02-14T02:24:49.637Z,103714.95
2019-02-14T02:25:50.765Z,103714.61
2019-02-14T02:26:51.582Z,103714.69
2019-02-14T02:27:52.411Z,103714.19
2019-02-14T02:28:53.174Z,103713.95
2019-02-14T02:29:53.920Z,103713.19
2019-02-14T02:30:54.691Z,103713.40
2019-02-14T02:31:55.247Z,103713.00
2019-02-14T02:32:55.935Z,103712.91
2019-02-14T02:33:56.774Z,103712.91
2019-02-14T02:34:56.896Z,103712.84
2019-02-14T02:36:00.380Z,103712.41
2019-02-14T02:36:57.303Z,103711.84
2019-02-14T02:37:58.784Z,103711.80
2019-02-14T02:38:59.364Z,103711.53
2019-02-14T02:40:00.986Z,103711.46
2019-02-14T02:41:00.254Z,103711.52
2019-02-14T02:42:00.065Z,103710.92
2019-02-14T02:43:01.635Z,103711.09
2019-02-14T02:44:02.213Z,103711.15
2019-02-14T02:45:02.891Z,103711.41
2019-02-14T02:46:03.025Z,103711.97
2019-02-14T02:47:03.791Z,103711.80
2019-02-14T02:48:04.730Z,103712.52
2019-02-14T02:49:05.347Z,103713.41
2019-02-14T02:50:06.248Z,103714.30
2019-02-14T02:51:06.962Z,103715.13
2019-02-14T02:52:07.766Z,103714.75
2019-02-14T02:53:08.415Z,103715.14
2019-02-14T02:54:09.271Z,103715.09
2019-02-14T02:55:09.949Z,103715.53
2019-02-14T02:56:10.079Z,103715.26
2019-02-14T02:57:10.934Z,103715.41
2019-02-14T02:58:11.671Z,103715.44
2019-02-14T02:59:14.144Z,103715.92
2019-02-14T03:00:11.681Z,103715.58
2019-02-14T03:01:13.505Z,103715.64
2019-02-14T03:02:14.018Z,103715.88
2019-02-14T03:03:14.551Z,103715.77
2019-02-14T03:03:23.631Z,103715.33
2019-02-14T03:04:25.117Z,103715.16
2019-02-14T03:05:25.669Z,103714.73
2019-02-14T03:06:26.373Z,103714.83
2019-02-14T03:07:26.825Z,103715.33
2019-02-14T03:08:27.293Z,103715.27
2019-02-14T03:09:27.909Z,103715.44
2019-02-14T03:10:28.710Z,103715.66
2019-02-14T03:11:29.461Z,103715.33
2019-02-14T03:12:30.432Z,103714.83
2019-02-14T03:13:31.059Z,103715.34
2019-02-14T03:14:31.714Z,103715.44
2019-02-14T03:15:32.499Z,103715.13
2019-02-14T03:16:33.452Z,103715.16
2019-02-14T03:17:33.292Z,103714.50
2019-02-14T03:18:34.894Z,103714.44
2019-02-14T03:19:34.876Z,103714.34
2019-02-14T03:20:35.400Z,103714.61
2019-02-14T03:21:36.020Z,103714.44
2019-02-14T03:22:36.994Z,103714.50
2019-02-14T03:23:37.547Z,103714.33
2019-02-14T03:24:38.069Z,103714.39
2019-02-14T03:25:38.656Z,103714.27
2019-02-14T03:26:39.088Z,103713.89
2019-02-14T03:27:39.674Z,103713.57
2019-02-14T03:28:40.225Z,103713.41
2019-02-14T03:29:40.815Z,103713.53
2019-02-14T03:30:41.308Z,103712.81
2019-02-14T03:31:41.860Z,103712.64
2019-02-14T03:32:42.304Z,103712.53
2019-02-14T03:33:42.975Z,103712.66
2019-02-14T03:34:43.687Z,103712.64
2019-02-14T03:35:44.248Z,103712.36
2019-02-14T03:36:44.420Z,103712.66
2019-02-14T03:37:45.057Z,103713.22
2019-02-14T03:38:45.650Z,103713.38
2019-02-14T03:39:46.304Z,103713.27
2019-02-14T03:40:46.887Z,103713.83
2019-02-14T03:41:47.428Z,103713.75
2019-02-14T03:42:48.062Z,103713.55
2019-02-14T03:43:48.574Z,103713.31
2019-02-14T03:44:48.983Z,103713.97
2019-02-14T03:45:49.605Z,103714.53
2019-02-14T03:46:50.144Z,103714.16
2019-02-14T03:47:00.715Z,103719.67
2019-02-14T03:48:02.392Z,103719.51
2019-02-14T03:49:03.186Z,103719.17
2019-02-14T03:50:03.685Z,103719.41
2019-02-14T03:51:04.282Z,103719.08
2019-02-14T03:52:04.674Z,103719.02
2019-02-14T03:53:05.155Z,103719.62
2019-02-14T03:54:05.663Z,103719.62
2019-02-14T03:55:06.098Z,103719.79
2019-02-14T03:56:06.710Z,103719.79
2019-02-14T03:57:07.187Z,103720.34
2019-02-14T03:58:07.710Z,103720.56
2019-02-14T03:59:08.442Z,103720.69
2019-02-14T04:00:08.964Z,103721.84
2019-02-14T04:01:08.639Z,103722.66
2019-02-14T04:02:10.279Z,103723.28
2019-02-14T04:03:10.873Z,103724.17
2019-02-14T04:04:11.589Z,103724.83
2019-02-14T04:05:12.235Z,103725.61
2019-02-14T04:06:12.888Z,103726.70
2019-02-14T04:07:13.431Z,103727.16
2019-02-14T04:08:14.024Z,103727.87
2019-02-14T04:09:14.466Z,103728.69
2019-02-14T04:10:15.081Z,103728.98
2019-02-14T04:11:15.551Z,103729.47
2019-02-14T04:12:16.023Z,103729.76
2019-02-14T04:13:16.661Z,103729.59
2019-02-14T04:14:16.687Z,103730.04
2019-02-14T04:15:17.148Z,103730.36
2019-02-14T04:16:17.679Z,103730.48
2019-02-14T04:17:18.268Z,103730.59
2019-02-14T04:18:18.729Z,103730.81
2019-02-14T04:19:19.184Z,103731.03
2019-02-14T04:20:19.662Z,103731.08
2019-02-14T04:21:20.346Z,103730.53
2019-02-14T04:22:20.520Z,103731.32
2019-02-14T04:23:21.206Z,103731.70
2019-02-14T04:24:21.964Z,103732.19
2019-02-14T04:25:22.561Z,103732.81
2019-02-14T04:26:23.256Z,103733.80
2019-02-14T04:27:23.933Z,103734.75
2019-02-14T04:28:24.602Z,103735.96
2019-02-14T04:29:25.204Z,103736.95
2019-02-14T04:30:25.787Z,103737.73
2019-02-14T04:31:26.379Z,103738.88
2019-02-14T04:31:40.452Z,103759.56
2019-02-14T04:32:41.845Z,103759.13
2019-02-14T04:33:42.427Z,103759.89
2019-02-14T04:34:42.949Z,103760.05
2019-02-14T04:35:43.393Z,103760.22
2019-02-14T04:36:44.188Z,103760.78
2019-02-14T04:37:44.860Z,103760.38
2019-02-14T04:38:45.464Z,103760.55
2019-02-14T04:39:46.235Z,103760.61
2019-02-14T04:40:46.816Z,103760.90
2019-02-14T04:41:46.828Z,103760.89
2019-02-14T04:42:47.567Z,103760.94
2019-02-14T04:43:48.174Z,103760.99
2019-02-14T04:44:48.777Z,103760.95
2019-02-14T04:45:49.312Z,103760.94
2019-02-14T04:46:49.887Z,103760.50
2019-02-14T04:47:50.461Z,103759.90
2019-02-14T04:48:51.026Z,103760.06
2019-02-14T04:49:51.714Z,103759.39
2019-02-14T04:50:52.259Z,103759.13
2019-02-14T04:51:52.871Z,103758.52
2019-02-14T04:52:53.540Z,103758.19
2019-02-14T04:53:54.215Z,103757.45
2019-02-14T04:54:54.862Z,103756.48
2019-02-14T04:55:55.441Z,103756.63
2019-02-14T04:56:56.035Z,103756.76
2019-02-14T04:57:56.795Z,103756.25
2019-02-14T04:58:56.909Z,103756.25
2019-02-14T04:59:57.719Z,103756.52
2019-02-14T05:00:58.278Z,103756.26
2019-02-14T05:01:58.939Z,103756.20
2019-02-14T05:02:59.066Z,103756.47
2019-02-14T05:03:59.639Z,103756.80
2019-02-14T05:05:00.461Z,103757.30
2019-02-14T05:06:01.672Z,103756.92
2019-02-14T05:07:01.214Z,103757.69
2019-02-14T05:08:02.711Z,103757.91
2019-02-14T05:09:03.384Z,103758.13
2019-02-14T05:10:04.038Z,103758.36
2019-02-14T05:11:04.712Z,103758.19
2019-02-14T05:12:05.136Z,103757.58
2019-02-14T05:13:05.854Z,103757.97
2019-02-14T05:14:06.291Z,103757.75
2019-02-14T05:15:06.819Z,103757.97
2019-02-14T05:16:07.447Z,103758.19
2019-02-14T05:16:16.994Z,103763.20
2019-02-14T05:17:18.656Z,103762.77
2019-02-14T05:18:19.189Z,103762.50
2019-02-14T05:19:19.606Z,103762.16
2019-02-14T05:20:20.217Z,103762.28
2019-02-14T05:21:20.792Z,103762.70
2019-02-14T05:22:21.495Z,103763.09
2019-02-14T05:23:22.244Z,103763.22
2019-02-14T05:24:22.828Z,103763.48
2019-02-14T05:25:23.602Z,103763.81
2019-02-14T05:26:24.197Z,103764.27
2019-02-14T05:27:24.944Z,103764.41
2019-02-14T05:28:25.537Z,103764.91
2019-02-14T05:29:26.263Z,103765.25
2019-02-14T05:30:27.062Z,103765.81
2019-02-14T05:31:27.626Z,103765.92
2019-02-14T05:32:28.037Z,103766.75
2019-02-14T05:33:28.498Z,103767.30
2019-02-14T05:34:28.894Z,103768.30
2019-02-14T05:35:29.542Z,103769.05
2019-02-14T05:36:30.090Z,103769.52
2019-02-14T05:37:30.665Z,103770.16
2019-02-14T05:38:31.227Z,103771.94
2019-02-14T05:39:31.236Z,103772.92
2019-02-14T05:40:31.919Z,103773.55
2019-02-14T05:41:32.532Z,103774.20
2019-02-14T05:42:32.116Z,103775.14
2019-02-14T05:43:33.532Z,103775.63
2019-02-14T05:44:34.122Z,103776.35
2019-02-14T05:45:34.681Z,103776.84
2019-02-14T05:46:35.292Z,103777.50
2019-02-14T05:47:36.148Z,103777.56
2019-02-14T05:48:36.813Z,103778.00
2019-02-14T05:49:37.510Z,103777.84
2019-02-14T05:50:38.383Z,103778.50
2019-02-14T05:51:39.078Z,103779.05
2019-02-14T05:52:39.814Z,103779.28
2019-02-14T05:53:40.241Z,103779.44
2019-02-14T05:54:40.688Z,103779.72
2019-02-14T05:55:41.207Z,103779.70
2019-02-14T05:56:41.914Z,103779.39
2019-02-14T05:57:42.533Z,103779.27
2019-02-14T05:58:42.937Z,103779.42
2019-02-14T05:59:43.522Z,103778.95
2019-02-14T06:00:44.328Z,103779.70
2019-02-14T06:00:53.706Z,103786.27
2019-02-14T06:01:55.527Z,103785.70
2019-02-14T06:02:56.031Z,103785.27
2019-02-14T06:03:56.515Z,103785.60
2019-02-14T06:04:57.205Z,103785.23
2019-02-14T06:05:57.755Z,103786.14
2019-02-14T06:07:01.071Z,103786.20
2019-02-14T06:07:58.500Z,103786.43
2019-02-14T06:09:00.041Z,103785.94
2019-02-14T06:10:00.538Z,103785.86
2019-02-14T06:11:01.186Z,103785.86
2019-02-14T06:12:01.755Z,103786.42
2019-02-14T06:13:02.362Z,103786.30
2019-02-14T06:14:02.765Z,103786.25
2019-02-14T06:15:03.387Z,103786.13
2019-02-14T06:16:03.783Z,103786.48
2019-02-14T06:17:12.580Z,103786.64
2019-02-14T06:18:13.165Z,103786.03
2019-02-14T06:19:13.591Z,103786.19
2019-02-14T06:20:14.314Z,103786.14
2019-02-14T06:21:14.807Z,103786.30
2019-02-14T06:22:15.239Z,103785.92
2019-02-14T06:23:15.665Z,103785.91
2019-02-14T06:24:16.151Z,103786.47
2019-02-14T06:25:16.684Z,103786.53
2019-02-14T06:26:17.270Z,103786.63
2019-02-14T06:27:17.773Z,103787.45
2019-02-14T06:28:18.237Z,103787.57
2019-02-14T06:29:18.781Z,103787.78
2019-02-14T06:30:19.392Z,103788.07
2019-02-14T06:31:20.038Z,103788.89
2019-02-14T06:32:20.695Z,103789.70
2019-02-14T06:33:21.685Z,103790.92
2019-02-14T06:34:22.259Z,103792.64
2019-02-14T06:35:22.845Z,103794.12
2019-02-14T06:36:23.501Z,103795.50
2019-02-14T06:37:23.917Z,103797.55
2019-02-14T06:38:24.609Z,103799.27
2019-02-14T06:39:25.172Z,103800.48
2019-02-14T06:40:25.834Z,103801.91
2019-02-14T06:41:26.420Z,103802.84
2019-02-14T06:42:26.928Z,103804.39
2019-02-14T06:43:27.718Z,103805.92
2019-02-14T06:44:28.247Z,103807.63
2019-02-14T06:45:28.969Z,103808.73
2019-02-14T06:45:38.049Z,103830.52
2019-02-14T06:46:39.632Z,103830.25
2019-02-14T06:47:38.773Z,103830.69
2019-02-14T06:48:40.195Z,103830.25
2019-02-14T06:49:40.648Z,103829.70
2019-02-14T06:50:41.399Z,103829.41
2019-02-14T06:51:41.886Z,103829.09
2019-02-14T06:52:42.334Z,103829.14
2019-02-14T06:53:42.748Z,103829.31
2019-02-14T06:54:43.298Z,103828.76
2019-02-14T06:55:42.918Z,103828.67
2019-02-14T06:56:44.486Z,103828.94
2019-02-14T06:57:44.941Z,103829.38
2019-02-14T06:58:44.832Z,103829.54
2019-02-14T06:59:46.254Z,103830.14
2019-02-14T07:00:47.038Z,103830.55
2019-02-14T07:01:47.595Z,103830.88
2019-02-14T07:02:48.233Z,103831.20
2019-02-14T07:03:49.105Z,103831.87
2019-02-14T07:04:49.588Z,103832.80
2019-02-14T07:05:49.463Z,103833.41
2019-02-14T07:06:51.029Z,103834.67
2019-02-14T07:07:51.749Z,103835.72
2019-02-14T07:08:52.830Z,103837.16
2019-02-14T07:09:51.956Z,103837.38
2019-02-14T07:10:53.471Z,103838.80
2019-02-14T07:11:54.204Z,103838.97
2019-02-14T07:12:54.824Z,103840.03
2019-02-14T07:13:55.491Z,103840.64
2019-02-14T07:14:55.061Z,103840.58
2019-02-14T07:15:56.728Z,103840.64
2019-02-14T07:16:57.658Z,103841.02
2019-02-14T07:17:58.510Z,103841.13
2019-02-14T07:18:59.068Z,103841.17
2019-02-14T07:20:00.024Z,103841.45
2019-02-14T07:21:00.631Z,103840.56
2019-02-14T07:22:01.035Z,103841.17
2019-02-14T07:23:01.497Z,103841.34
2019-02-14T07:24:02.061Z,103841.84
2019-02-14T07:25:02.523Z,103842.17
2019-02-14T07:26:03.002Z,103842.88
2019-02-14T07:27:03.545Z,103842.95
2019-02-14T07:28:04.054Z,103844.66
2019-02-14T07:29:04.512Z,103845.64
2019-02-14T07:30:05.128Z,103847.38
2019-02-14T07:31:05.721Z,103848.14
2019-02-14T07:31:14.759Z,103865.15
2019-02-14T07:32:16.314Z,103865.05
2019-02-14T07:33:17.287Z,103864.88
2019-02-14T07:34:16.807Z,103865.05
2019-02-14T07:35:18.296Z,103865.30
2019-02-14T07:36:19.201Z,103865.47
2019-02-14T07:37:26.550Z,103865.88
2019-02-14T07:38:19.296Z,103865.88
2019-02-14T07:39:20.934Z,103865.63
2019-02-14T07:40:20.591Z,103865.63
2019-02-14T07:41:22.114Z,103865.97
2019-02-14T07:42:22.695Z,103866.53
2019-02-14T07:43:23.435Z,103866.53
2019-02-14T07:44:23.954Z,103867.47
2019-02-14T07:45:24.682Z,103868.13
2019-02-14T07:46:25.195Z,103868.73
2019-02-14T07:47:25.629Z,103869.73
2019-02-14T07:48:26.133Z,103870.28
2019-02-14T07:49:26.611Z,103871.05
2019-02-14T07:50:27.061Z,103871.89
2019-02-14T07:51:27.716Z,103872.66
2019-02-14T07:52:28.145Z,103873.50
2019-02-14T07:53:28.903Z,103874.61
2019-02-14T07:54:29.729Z,103874.92
2019-02-14T07:55:30.358Z,103875.48
2019-02-14T07:56:30.846Z,103876.20
2019-02-14T07:57:31.369Z,103876.65
2019-02-14T07:58:31.974Z,103877.53
2019-02-14T07:59:32.464Z,103877.66
2019-02-14T08:00:33.136Z,103877.94
2019-02-14T08:01:33.678Z,103878.70
2019-02-14T08:02:35.256Z,103879.48
2019-02-14T08:03:35.007Z,103879.75
2019-02-14T08:04:34.538Z,103880.06
2019-02-14T08:05:36.033Z,103880.73
2019-02-14T08:06:36.562Z,103881.61
2019-02-14T08:07:37.384Z,103881.73
2019-02-14T08:08:38.227Z,103881.82
2019-02-14T08:09:37.857Z,103881.98
2019-02-14T08:10:39.353Z,103882.55
2019-02-14T08:11:39.964Z,103882.98
2019-02-14T08:12:40.413Z,103884.27
2019-02-14T08:13:41.321Z,103884.81
2019-02-14T08:14:41.998Z,103885.42
2019-02-14T08:15:42.718Z,103885.88
2019-02-14T08:16:42.982Z,103886.82
2019-02-14T08:17:43.842Z,103886.70
2019-02-14T08:18:44.307Z,103886.66
2019-02-14T08:18:53.879Z,103886.50
2019-02-14T08:19:55.493Z,103886.40
2019-02-14T08:20:55.937Z,103886.07
2019-02-14T08:21:55.475Z,103886.17
2019-02-14T08:22:57.011Z,103885.73
2019-02-14T08:23:57.564Z,103885.34
2019-02-14T08:24:58.144Z,103884.86
2019-02-14T08:25:58.650Z,103884.92
2019-02-14T08:26:59.266Z,103884.54
2019-02-14T08:27:59.643Z,103884.48
2019-02-14T08:29:00.270Z,103884.31
2019-02-14T08:30:00.437Z,103884.20
2019-02-14T08:31:01.063Z,103884.16
2019-02-14T08:32:01.816Z,103884.66
2019-02-14T08:33:02.303Z,103884.27
2019-02-14T08:34:02.853Z,103884.16
2019-02-14T08:35:03.468Z,103884.22
2019-02-14T08:36:04.005Z,103884.56
2019-02-14T08:37:04.444Z,103884.51
2019-02-14T08:38:05.173Z,103884.06
2019-02-14T08:39:05.733Z,103883.70
2019-02-14T08:40:06.170Z,103883.66
2019-02-14T08:41:06.872Z,103883.60
2019-02-14T08:42:07.502Z,103883.33
2019-02-14T08:43:08.310Z,103883.10
2019-02-14T08:44:09.187Z,103883.45
2019-02-14T08:45:09.796Z,103883.30
2019-02-14T08:46:10.524Z,103882.84
2019-02-14T08:47:11.128Z,103882.47
2019-02-14T08:48:11.808Z,103882.47
2019-02-14T08:49:12.477Z,103882.31
2019-02-14T08:50:13.247Z,103882.97
2019-02-14T08:51:13.829Z,103883.23
2019-02-14T08:52:14.466Z,103883.80
2019-02-14T08:53:15.133Z,103883.52
2019-02-14T08:54:15.725Z,103884.28
2019-02-14T08:55:16.567Z,103884.78
2019-02-14T08:56:17.340Z,103884.45
2019-02-14T08:57:18.010Z,103884.96
2019-02-14T08:58:18.675Z,103884.95
2019-02-14T08:59:19.285Z,103885.30
2019-02-14T09:00:19.843Z,103885.30
2019-02-14T09:01:20.463Z,103884.70
2019-02-14T09:02:21.208Z,103884.91
2019-02-14T09:03:21.810Z,103883.81
2019-02-14T09:04:22.621Z,103883.22
2019-02-14T09:04:31.698Z,103875.11
2019-02-14T09:05:33.224Z,103874.52
2019-02-14T09:06:33.712Z,103874.89
2019-02-14T09:07:34.303Z,103874.55
2019-02-14T09:08:34.897Z,103874.55
2019-02-14T09:09:35.605Z,103874.56
2019-02-14T09:10:36.204Z,103874.39
2019-02-14T09:11:37.131Z,103873.96
2019-02-14T09:12:37.716Z,103874.52
2019-02-14T09:13:39.262Z,103874.50
2019-02-14T09:14:39.062Z,103874.22
2019-02-14T09:15:39.590Z,103874.34
2019-02-14T09:16:40.186Z,103874.23
2019-02-14T09:17:40.632Z,103873.95
2019-02-14T09:18:40.148Z,103874.67
2019-02-14T09:19:42.111Z,103874.91
2019-02-14T09:20:42.764Z,103875.22
2019-02-14T09:21:42.239Z,103875.45
2019-02-14T09:22:42.982Z,103875.84
2019-02-14T09:23:44.836Z,103876.12
2019-02-14T09:24:45.606Z,103876.40
2019-02-14T09:25:46.232Z,103877.23
2019-02-14T09:26:46.858Z,103877.99
2019-02-14T09:27:47.862Z,103878.70
2019-02-14T09:28:48.375Z,103879.59
2019-02-14T09:29:48.433Z,103880.86
2019-02-14T09:30:49.058Z,103881.48
2019-02-14T09:31:49.532Z,103882.20
2019-02-14T09:32:50.215Z,103883.20
2019-02-14T09:33:50.057Z,103884.13
2019-02-14T09:34:51.737Z,103884.75
2019-02-14T09:35:52.639Z,103884.47
2019-02-14T09:36:53.108Z,103884.36
2019-02-14T09:37:53.669Z,103884.73
2019-02-14T09:38:54.096Z,103884.97
2019-02-14T09:39:54.808Z,103884.91
2019-02-14T09:40:55.796Z,103884.63
2019-02-14T09:41:56.378Z,103884.00
2019-02-14T09:42:56.999Z,103884.19
2019-02-14T09:43:57.919Z,103884.45
2019-02-14T09:44:58.465Z,103884.84
2019-02-14T09:45:59.060Z,103885.34
2019-02-14T09:46:59.584Z,103885.45
2019-02-14T09:48:00.226Z,103886.27
2019-02-14T09:49:00.742Z,103886.66
2019-02-14T09:50:01.256Z,103887.05
2019-02-14T09:51:01.910Z,103887.00
2019-02-14T09:52:02.498Z,103886.83
2019-02-14T09:52:14.542Z,103882.36
2019-02-14T09:53:16.255Z,103882.36
2019-02-14T09:54:16.978Z,103881.59
2019-02-14T09:55:17.700Z,103880.80
2019-02-14T09:56:18.383Z,103880.75
2019-02-14T09:57:19.205Z,103879.76
2019-02-14T09:58:19.756Z,103879.73
2019-02-14T09:59:21.598Z,103879.69
2019-02-14T10:00:22.201Z,103879.58
2019-02-14T10:01:21.928Z,103879.80
2019-02-14T10:02:22.574Z,103879.39
2019-02-14T10:03:23.195Z,103879.89
2019-02-14T10:04:23.910Z,103879.89
2019-02-14T10:05:24.462Z,103879.89
2019-02-14T10:06:25.129Z,103879.77
2019-02-14T10:07:24.544Z,103879.38
2019-02-14T10:08:26.345Z,103879.19
2019-02-14T10:09:26.909Z,103878.52
2019-02-14T10:10:26.544Z,103877.61
2019-02-14T10:11:28.064Z,103876.72
2019-02-14T10:12:28.675Z,103876.25
2019-02-14T10:13:29.490Z,103875.89
2019-02-14T10:14:30.246Z,103875.33
2019-02-14T10:15:30.952Z,103874.35
2019-02-14T10:16:31.434Z,103873.48
2019-02-14T10:17:32.148Z,103872.62
2019-02-14T10:18:33.070Z,103871.85
2019-02-14T10:19:33.837Z,103870.98
2019-02-14T10:20:34.547Z,103870.88
2019-02-14T10:21:35.388Z,103870.49
2019-02-14T10:22:35.629Z,103869.98
2019-02-14T10:23:36.605Z,103869.53
2019-02-14T10:24:37.484Z,103868.52
2019-02-14T10:25:38.216Z,103867.71
2019-02-14T10:26:38.848Z,103866.61
2019-02-14T10:27:39.488Z,103866.11
2019-02-14T10:28:40.155Z,103864.72
2019-02-14T10:29:40.705Z,103864.14
2019-02-14T10:30:40.718Z,103864.03
2019-02-14T10:31:41.521Z,103863.45
2019-02-14T10:32:42.233Z,103863.30
2019-02-14T10:33:43.226Z,103863.70
2019-02-14T10:34:43.901Z,103863.30
2019-02-14T10:35:44.634Z,103863.50
2019-02-14T10:36:45.286Z,103863.17
2019-02-14T10:37:45.755Z,103863.63
2019-02-14T10:37:56.802Z,103857.03
2019-02-14T10:38:58.326Z,103856.77
2019-02-14T10:39:58.961Z,103856.53
2019-02-14T10:40:59.595Z,103856.27
2019-02-14T10:41:59.755Z,103856.15
2019-02-14T10:43:00.483Z,103855.79
2019-02-14T10:44:00.260Z,103856.23
2019-02-14T10:45:01.940Z,103856.30
2019-02-14T10:46:02.500Z,103856.55
2019-02-14T10:47:03.333Z,103856.10
2019-02-14T10:48:03.365Z,103856.02
2019-02-14T10:49:04.010Z,103855.17
2019-02-14T10:50:04.737Z,103854.72
2019-02-14T10:51:05.324Z,103854.64
2019-02-14T10:52:06.112Z,103854.63
2019-02-14T10:53:06.551Z,103854.50
2019-02-14T10:54:07.047Z,103854.08
2019-02-14T10:55:07.605Z,103854.25
2019-02-14T10:56:08.278Z,103854.04
2019-02-14T10:57:09.196Z,103853.94
2019-02-14T10:58:11.032Z,103853.56
2019-02-14T10:59:10.215Z,103853.13
2019-02-14T11:00:11.143Z,103852.39
2019-02-14T11:01:11.399Z,103851.85
2019-02-14T11:02:11.880Z,103851.11
2019-02-14T11:03:12.796Z,103850.30
2019-02-14T11:04:13.431Z,103849.42
2019-02-14T11:05:14.090Z,103848.50
2019-02-14T11:06:14.825Z,103847.89
2019-02-14T11:07:15.785Z,103847.84
2019-02-14T11:08:16.340Z,103847.83
2019-02-14T11:09:16.836Z,103847.31
2019-02-14T11:10:17.266Z,103846.87
2019-02-14T11:11:17.783Z,103846.63
2019-02-14T11:12:18.352Z,103846.61
2019-02-14T11:13:18.856Z,103845.12
2019-02-14T11:14:28.673Z,103844.17
2019-02-14T11:15:19.012Z,103842.89
2019-02-14T11:16:20.605Z,103840.72
2019-02-14T11:17:20.611Z,103839.05
2019-02-14T11:18:20.324Z,103837.22
2019-02-14T11:19:21.871Z,103835.25
2019-02-14T11:20:22.692Z,103833.63
2019-02-14T11:21:23.128Z,103831.86